sensor_id;sensor_type;location;lat;lon;timestamp;pressure;altitude;pressure_sealevel;temperature;humidity
69630;BME280;56857;52.212;5.496;2023-05-24T00:01:59;102541.13;;;8.80;100.00
69630;BME280;56857;52.212;5.496;2023-05-24T00:04:24;102537.97;;;8.75;100.00
69630;BME280;56857;52.212;5.496;2023-05-24T00:06:50;102538.97;;;8.74;100.00
69630;BME280;56857;52.212;5.496;2023-05-24T00:09:16;102539.94;;;8.73;100.00
69630;BME280;56857;52.212;5.496;2023-05-24T00:11:41;102538.72;;;8.77;100.00
69630;BME280;56857;52.212;5.496;2023-05-24T00:14:06;102532.09;;;8.72;100.00
69630;BME280;56857;52.212;5.496;2023-05-24T00:16:31;102526.19;;;8.68;100.00
69630;BME280;56857;52.212;5.496;2023-05-24T00:18:57;102529.59;;;8.70;100.00
69630;BME280;56857;52.212;5.496;2023-05-24T00:21:22;102528.63;;;8.71;100.00
69630;BME280;56857;52.212;5.496;2023-05-24T00:23:47;102523.09;;;8.74;100.00
69630;BME280;56857;52.212;5.496;2023-05-24T00:26:13;102525.97;;;8.71;100.00
69630;BME280;56857;52.212;5.496;2023-05-24T00:28:38;102520.78;;;8.70;100.00
69630;BME280;56857;52.212;5.496;2023-05-24T00:31:03;102523.66;;;8.67;100.00
69630;BME280;56857;52.212;5.496;2023-05-24T00:33:29;102522.34;;;8.61;100.00
69630;BME280;56857;52.212;5.496;2023-05-24T00:35:54;102527.00;;;8.57;100.00
69630;BME280;56857;52.212;5.496;2023-05-24T00:38:29;102525.53;;;8.53;100.00
69630;BME280;56857;52.212;5.496;2023-05-24T00:40:55;102524.69;;;8.53;100.00
69630;BME280;56857;52.212;5.496;2023-05-24T00:43:21;102520.38;;;8.52;100.00
69630;BME280;56857;52.212;5.496;2023-05-24T00:45:47;102518.69;;;8.51;100.00
69630;BME280;56857;52.212;5.496;2023-05-24T00:48:12;102514.94;;;8.42;100.00
69630;BME280;56857;52.212;5.496;2023-05-24T00:50:39;102511.00;;;8.35;100.00
69630;BME280;56857;52.212;5.496;2023-05-24T00:53:05;102509.69;;;8.29;100.00
69630;BME280;56857;52.212;5.496;2023-05-24T00:55:33;102513.63;;;8.24;100.00
69630;BME280;56857;52.212;5.496;2023-05-24T00:57:58;102504.25;;;8.20;100.00
69630;BME280;56857;52.212;5.496;2023-05-24T01:00:25;102505.41;;;8.16;100.00
69630;BME280;56857;52.212;5.496;2023-05-24T01:02:50;102511.03;;;8.11;100.00
69630;BME280;56857;52.212;5.496;2023-05-24T01:05:16;102520.88;;;8.09;100.00
69630;BME280;56857;52.212;5.496;2023-05-24T01:08:23;102512.84;;;8.10;100.00
69630;BME280;56857;52.212;5.496;2023-05-24T01:11:08;102516.53;;;8.08;100.00
69630;BME280;56857;52.212;5.496;2023-05-24T01:13:43;102517.47;;;8.07;100.00
69630;BME280;56857;52.212;5.496;2023-05-24T01:16:14;102524.69;;;8.05;100.00
69630;BME280;56857;52.212;5.496;2023-05-24T01:18:46;102519.50;;;8.03;100.00
69630;BME280;56857;52.212;5.496;2023-05-24T01:21:31;102525.00;;;8.00;100.00
69630;BME280;56857;52.212;5.496;2023-05-24T01:27:03;102520.59;;;8.01;100.00
69630;BME280;56857;52.212;5.496;2023-05-24T01:29:31;102518.78;;;8.01;100.00
69630;BME280;56857;52.212;5.496;2023-05-24T01:31:57;102509.16;;;8.00;100.00
69630;BME280;56857;52.212;5.496;2023-05-24T01:34:24;102519.03;;;7.98;100.00
69630;BME280;56857;52.212;5.496;2023-05-24T01:36:50;102517.31;;;7.97;100.00
69630;BME280;56857;52.212;5.496;2023-05-24T01:39:15;102520.06;;;7.96;100.00
69630;BME280;56857;52.212;5.496;2023-05-24T01:41:46;102519.34;;;7.94;100.00
69630;BME280;56857;52.212;5.496;2023-05-24T01:44:35;102520.38;;;7.91;100.00
69630;BME280;56857;52.212;5.496;2023-05-24T01:47:10;102516.91;;;7.90;100.00
69630;BME280;56857;52.212;5.496;2023-05-24T01:49:41;102518.72;;;7.90;100.00
69630;BME280;56857;52.212;5.496;2023-05-24T01:52:11;102516.81;;;7.92;100.00
69630;BME280;56857;52.212;5.496;2023-05-24T01:54:43;102518.63;;;7.92;100.00
69630;BME280;56857;52.212;5.496;2023-05-24T01:57:10;102514.41;;;7.89;100.00
69630;BME280;56857;52.212;5.496;2023-05-24T01:59:40;102513.66;;;7.87;100.00
69630;BME280;56857;52.212;5.496;2023-05-24T02:02:08;102509.44;;;7.84;100.00
69630;BME280;56857;52.212;5.496;2023-05-24T02:04:33;102507.75;;;7.83;100.00
69630;BME280;56857;52.212;5.496;2023-05-24T02:06:59;102506.69;;;7.86;100.00
69630;BME280;56857;52.212;5.496;2023-05-24T02:09:24;102507.75;;;7.83;100.00
69630;BME280;56857;52.212;5.496;2023-05-24T02:11:49;102504.59;;;7.78;100.00
69630;BME280;56857;52.212;5.496;2023-05-24T02:14:15;102503.75;;;7.78;100.00
69630;BME280;56857;52.212;5.496;2023-05-24T02:16:40;102495.84;;;7.78;100.00
69630;BME280;56857;52.212;5.496;2023-05-24T02:19:05;102495.00;;;7.77;100.00
69630;BME280;56857;52.212;5.496;2023-05-24T02:21:31;102497.63;;;7.77;100.00
69630;BME280;56857;52.212;5.496;2023-05-24T02:23:56;102495.00;;;7.77;100.00
69630;BME280;56857;52.212;5.496;2023-05-24T02:26:21;102491.53;;;7.77;100.00
69630;BME280;56857;52.212;5.496;2023-05-24T02:28:47;102498.69;;;7.75;100.00
69630;BME280;56857;52.212;5.496;2023-05-24T02:31:12;102491.84;;;7.72;100.00
69630;BME280;56857;52.212;5.496;2023-05-24T02:33:37;102495.44;;;7.71;100.00
69630;BME280;56857;52.212;5.496;2023-05-24T02:36:02;102500.72;;;7.71;100.00
69630;BME280;56857;52.212;5.496;2023-05-24T02:38:28;102499.88;;;7.71;100.00
69630;BME280;56857;52.212;5.496;2023-05-24T02:40:53;102500.84;;;7.70;100.00
69630;BME280;56857;52.212;5.496;2023-05-24T02:43:18;102495.56;;;7.70;100.00
69630;BME280;56857;52.212;5.496;2023-05-24T02:45:44;102498.19;;;7.70;100.00
69630;BME280;56857;52.212;5.496;2023-05-24T02:48:09;102506.00;;;7.71;100.00
69630;BME280;56857;52.212;5.496;2023-05-24T02:50:34;102509.59;;;7.70;100.00
69630;BME280;56857;52.212;5.496;2023-05-24T02:53:00;102499.97;;;7.69;100.00
69630;BME280;56857;52.212;5.496;2023-05-24T02:55:25;102505.25;;;7.69;100.00
69630;BME280;56857;52.212;5.496;2023-05-24T02:57:50;102507.88;;;7.69;100.00
69630;BME280;56857;52.212;5.496;2023-05-24T03:00:16;102506.13;;;7.70;100.00
69630;BME280;56857;52.212;5.496;2023-05-24T03:02:43;102502.72;;;7.68;100.00
69630;BME280;56857;52.212;5.496;2023-05-24T03:05:08;102503.56;;;7.68;100.00
69630;BME280;56857;52.212;5.496;2023-05-24T03:07:34;102500.22;;;7.66;100.00
69630;BME280;56857;52.212;5.496;2023-05-24T03:09:59;102501.91;;;7.67;100.00
69630;BME280;56857;52.212;5.496;2023-05-24T03:12:24;102510.66;;;7.68;100.00
69630;BME280;56857;52.212;5.496;2023-05-24T03:14:50;102505.50;;;7.66;100.00
69630;BME280;56857;52.212;5.496;2023-05-24T03:17:15;102499.34;;;7.65;100.00
69630;BME280;56857;52.212;5.496;2023-05-24T03:19:40;102496.72;;;7.65;100.00
69630;BME280;56857;52.212;5.496;2023-05-24T03:22:06;102490.59;;;7.65;100.00
69630;BME280;56857;52.212;5.496;2023-05-24T03:24:31;102490.50;;;7.66;100.00
69630;BME280;56857;52.212;5.496;2023-05-24T03:26:57;102493.97;;;7.67;100.00
69630;BME280;56857;52.212;5.496;2023-05-24T03:29:22;102490.38;;;7.68;100.00
69630;BME280;56857;52.212;5.496;2023-05-24T03:31:47;102484.03;;;7.71;100.00
69630;BME280;56857;52.212;5.496;2023-05-24T03:34:13;102478.00;;;7.69;100.00
69630;BME280;56857;52.212;5.496;2023-05-24T03:36:38;102483.28;;;7.69;100.00
69630;BME280;56857;52.212;5.496;2023-05-24T03:39:03;102487.50;;;7.71;100.00
69630;BME280;56857;52.212;5.496;2023-05-24T03:41:29;102486.91;;;7.68;100.00
69630;BME280;56857;52.212;5.496;2023-05-24T03:43:54;102488.91;;;7.64;100.00
69630;BME280;56857;52.212;5.496;2023-05-24T03:46:20;102495.03;;;7.64;100.00
69630;BME280;56857;52.212;5.496;2023-05-24T03:48:45;102495.88;;;7.65;100.00
69630;BME280;56857;52.212;5.496;2023-05-24T03:51:10;102495.03;;;7.64;100.00
69630;BME280;56857;52.212;5.496;2023-05-24T03:53:36;102494.06;;;7.65;100.00
69630;BME280;56857;52.212;5.496;2023-05-24T03:56:01;102487.88;;;7.66;100.00
69630;BME280;56857;52.212;5.496;2023-05-24T03:58:26;102490.59;;;7.65;100.00
69630;BME280;56857;52.212;5.496;2023-05-24T04:00:52;102499.34;;;7.65;100.00
69630;BME280;56857;52.212;5.496;2023-05-24T04:03:17;102493.22;;;7.65;100.00
69630;BME280;56857;52.212;5.496;2023-05-24T04:05:43;102491.22;;;7.69;100.00
69630;BME280;56857;52.212;5.496;2023-05-24T04:08:09;102491.13;;;7.70;100.00
69630;BME280;56857;52.212;5.496;2023-05-24T04:10:35;102485.63;;;7.73;100.00
69630;BME280;56857;52.212;5.496;2023-05-24T04:13:03;102489.09;;;7.74;100.00
69630;BME280;56857;52.212;5.496;2023-05-24T04:15:28;102493.31;;;7.76;100.00
69630;BME280;56857;52.212;5.496;2023-05-24T04:17:54;102488.88;;;7.77;100.00
69630;BME280;56857;52.212;5.496;2023-05-24T04:20:20;102481.56;;;7.80;100.00
69630;BME280;56857;52.212;5.496;2023-05-24T04:22:46;102488.31;;;7.84;100.00
69630;BME280;56857;52.212;5.496;2023-05-24T04:25:11;102490.72;;;7.87;100.00
69630;BME280;56857;52.212;5.496;2023-05-24T04:27:36;102483.66;;;7.88;100.00
69630;BME280;56857;52.212;5.496;2023-05-24T04:30:02;102488.72;;;7.91;100.00
69630;BME280;56857;52.212;5.496;2023-05-24T04:32:27;102489.56;;;7.92;100.00
69630;BME280;56857;52.212;5.496;2023-05-24T04:34:53;102498.13;;;7.95;100.00
69630;BME280;56857;52.212;5.496;2023-05-24T04:37:18;102495.97;;;8.00;100.00
69630;BME280;56857;52.212;5.496;2023-05-24T04:39:44;102494.69;;;8.06;100.00
69630;BME280;56857;52.212;5.496;2023-05-24T04:42:11;102496.03;;;8.11;100.00
69630;BME280;56857;52.212;5.496;2023-05-24T04:44:37;102503.50;;;8.18;100.00
69630;BME280;56857;52.212;5.496;2023-05-24T04:47:04;102501.47;;;8.21;100.00
69630;BME280;56857;52.212;5.496;2023-05-24T04:49:29;102499.34;;;8.26;100.00
69630;BME280;56857;52.212;5.496;2023-05-24T04:51:55;102494.56;;;8.31;100.00
69630;BME280;56857;52.212;5.496;2023-05-24T04:54:22;102499.38;;;8.38;100.00
69630;BME280;56857;52.212;5.496;2023-05-24T04:56:47;102505.91;;;8.45;100.00
69630;BME280;56857;52.212;5.496;2023-05-24T04:59:13;102505.47;;;8.51;100.00
69630;BME280;56857;52.212;5.496;2023-05-24T05:01:38;102506.81;;;8.56;100.00
69630;BME280;56857;52.212;5.496;2023-05-24T05:04:04;102506.47;;;8.61;100.00
69630;BME280;56857;52.212;5.496;2023-05-24T05:06:29;102502.72;;;8.64;100.00
69630;BME280;56857;52.212;5.496;2023-05-24T05:08:55;102502.28;;;8.70;100.00
69630;BME280;56857;52.212;5.496;2023-05-24T05:11:20;102501.94;;;8.74;100.00
69630;BME280;56857;52.212;5.496;2023-05-24T05:13:46;102502.41;;;8.79;100.00
69630;BME280;56857;52.212;5.496;2023-05-24T05:16:11;102495.72;;;8.87;100.00
69630;BME280;56857;52.212;5.496;2023-05-24T05:18:37;102498.72;;;8.93;100.00
69630;BME280;56857;52.212;5.496;2023-05-24T05:21:02;102498.38;;;8.98;100.00
69630;BME280;56857;52.212;5.496;2023-05-24T05:23:28;102510.41;;;9.02;100.00
69630;BME280;56857;52.212;5.496;2023-05-24T05:25:54;102505.50;;;9.09;100.00
69630;BME280;56857;52.212;5.496;2023-05-24T05:28:19;102509.34;;;9.16;100.00
69630;BME280;56857;52.212;5.496;2023-05-24T05:30:45;102507.66;;;9.26;100.00
69630;BME280;56857;52.212;5.496;2023-05-24T05:33:10;102504.41;;;9.34;100.00
69630;BME280;56857;52.212;5.496;2023-05-24T05:35:35;102517.78;;;9.43;100.00
69630;BME280;56857;52.212;5.496;2023-05-24T05:38:00;102517.88;;;9.53;100.00
69630;BME280;56857;52.212;5.496;2023-05-24T05:40:26;102521.47;;;9.63;100.00
69630;BME280;56857;52.212;5.496;2023-05-24T05:42:51;102509.41;;;9.70;100.00
69630;BME280;56857;52.212;5.496;2023-05-24T05:45:16;102512.31;;;9.79;100.00
69630;BME280;56857;52.212;5.496;2023-05-24T05:47:42;102511.69;;;9.86;100.00
69630;BME280;56857;52.212;5.496;2023-05-24T05:50:08;102518.06;;;9.95;100.00
69630;BME280;56857;52.212;5.496;2023-05-24T05:52:33;102518.28;;;10.03;100.00
69630;BME280;56857;52.212;5.496;2023-05-24T05:55:00;102523.94;;;10.10;100.00
69630;BME280;56857;52.212;5.496;2023-05-24T05:57:25;102517.28;;;10.15;100.00
69630;BME280;56857;52.212;5.496;2023-05-24T05:59:51;102520.38;;;10.20;100.00
69630;BME280;56857;52.212;5.496;2023-05-24T06:02:17;102514.84;;;10.24;100.00
69630;BME280;56857;52.212;5.496;2023-05-24T06:04:43;102511.59;;;10.31;100.00
69630;BME280;56857;52.212;5.496;2023-05-24T06:07:08;102511.22;;;10.36;100.00
69630;BME280;56857;52.212;5.496;2023-05-24T06:09:33;102510.59;;;10.43;100.00
69630;BME280;56857;52.212;5.496;2023-05-24T06:11:59;102508.38;;;10.49;100.00
69630;BME280;56857;52.212;5.496;2023-05-24T06:14:24;102526.16;;;10.58;100.00
69630;BME280;56857;52.212;5.496;2023-05-24T06:16:50;102523.16;;;10.62;100.00
69630;BME280;56857;52.212;5.496;2023-05-24T06:19:15;102522.59;;;10.68;100.00
69630;BME280;56857;52.212;5.496;2023-05-24T06:21:41;102516.28;;;10.81;100.00
69630;BME280;56857;52.212;5.496;2023-05-24T06:24:06;102521.97;;;10.97;100.00
69630;BME280;56857;52.212;5.496;2023-05-24T06:26:31;102524.16;;;11.13;100.00
69630;BME280;56857;52.212;5.496;2023-05-24T06:28:57;102520.13;;;11.19;100.00
69630;BME280;56857;52.212;5.496;2023-05-24T06:31:22;102522.41;;;11.23;100.00
69630;BME280;56857;52.212;5.496;2023-05-24T06:33:47;102522.28;;;11.34;100.00
69630;BME280;56857;52.212;5.496;2023-05-24T06:36:13;102526.41;;;11.48;100.00
69630;BME280;56857;52.212;5.496;2023-05-24T06:38:40;102529.22;;;11.56;100.00
69630;BME280;56857;52.212;5.496;2023-05-24T06:41:05;102528.41;;;11.66;100.00
69630;BME280;56857;52.212;5.496;2023-05-24T06:43:32;102520.47;;;11.75;100.00
69630;BME280;56857;52.212;5.496;2023-05-24T06:45:57;102530.72;;;11.80;100.00
69630;BME280;56857;52.212;5.496;2023-05-24T06:48:23;102526.09;;;11.82;100.00
69630;BME280;56857;52.212;5.496;2023-05-24T06:50:49;102528.22;;;11.88;100.00
69630;BME280;56857;52.212;5.496;2023-05-24T06:53:14;102524.91;;;12.05;100.00
69630;BME280;56857;52.212;5.496;2023-05-24T06:55:40;102525.09;;;12.14;100.00
69630;BME280;56857;52.212;5.496;2023-05-24T06:58:05;102527.59;;;12.25;100.00
69630;BME280;56857;52.212;5.496;2023-05-24T07:00:31;102532.06;;;12.24;100.00
69630;BME280;56857;52.212;5.496;2023-05-24T07:02:56;102539.91;;;12.26;100.00
69630;BME280;56857;52.212;5.496;2023-05-24T07:05:22;102534.47;;;12.37;100.00
69630;BME280;56857;52.212;5.496;2023-05-24T07:07:47;102537.38;;;12.53;100.00
69630;BME280;56857;52.212;5.496;2023-05-24T07:10:13;102537.09;;;12.66;100.00
69630;BME280;56857;52.212;5.496;2023-05-24T07:12:38;102542.00;;;12.71;100.00
69630;BME280;56857;52.212;5.496;2023-05-24T07:15:05;102536.97;;;12.68;100.00
69630;BME280;56857;52.212;5.496;2023-05-24T07:17:30;102525.34;;;12.59;100.00
69630;BME280;56857;52.212;5.496;2023-05-24T07:19:56;102531.94;;;12.45;100.00
69630;BME280;56857;52.212;5.496;2023-05-24T07:22:21;102536.97;;;12.39;100.00
69630;BME280;56857;52.212;5.496;2023-05-24T07:24:47;102533.34;;;12.40;100.00
69630;BME280;56857;52.212;5.496;2023-05-24T07:27:12;102539.06;;;12.45;100.00
69630;BME280;56857;52.212;5.496;2023-05-24T07:29:38;102537.38;;;12.53;100.00
69630;BME280;56857;52.212;5.496;2023-05-24T07:32:04;102546.91;;;12.56;100.00
69630;BME280;56857;52.212;5.496;2023-05-24T07:34:29;102537.66;;;12.50;100.00
69630;BME280;56857;52.212;5.496;2023-05-24T07:36:55;102529.84;;;12.59;100.00
69630;BME280;56857;52.212;5.496;2023-05-24T07:39:20;102531.22;;;12.72;100.00
69630;BME280;56857;52.212;5.496;2023-05-24T07:41:46;102542.25;;;12.87;100.00
69630;BME280;56857;52.212;5.496;2023-05-24T07:44:14;102539.59;;;12.87;100.00
69630;BME280;56857;52.212;5.496;2023-05-24T07:46:39;102552.66;;;12.81;100.00
69630;BME280;56857;52.212;5.496;2023-05-24T07:49:05;102550.25;;;12.78;100.00
69630;BME280;56857;52.212;5.496;2023-05-24T07:51:30;102542.69;;;12.73;100.00
69630;BME280;56857;52.212;5.496;2023-05-24T07:53:55;102542.56;;;12.84;100.00
69630;BME280;56857;52.212;5.496;2023-05-24T07:56:21;102528.91;;;13.07;100.00
69630;BME280;56857;52.212;5.496;2023-05-24T07:58:46;102545.53;;;13.38;100.00
69630;BME280;56857;52.212;5.496;2023-05-24T08:01:11;102538.81;;;13.61;100.00
69630;BME280;56857;52.212;5.496;2023-05-24T08:03:37;102544.31;;;13.60;100.00
69630;BME280;56857;52.212;5.496;2023-05-24T08:06:02;102532.28;;;13.46;100.00
69630;BME280;56857;52.212;5.496;2023-05-24T08:08:27;102540.03;;;13.39;100.00
69630;BME280;56857;52.212;5.496;2023-05-24T08:10:53;102532.63;;;13.23;100.00
69630;BME280;56857;52.212;5.496;2023-05-24T08:13:18;102534.38;;;13.15;100.00
69630;BME280;56857;52.212;5.496;2023-05-24T08:15:46;102523.00;;;13.13;100.00
69630;BME280;56857;52.212;5.496;2023-05-24T08:18:13;102524.38;;;13.17;100.00
69630;BME280;56857;52.212;5.496;2023-05-24T08:20:38;102523.13;;;13.21;100.00
69630;BME280;56857;52.212;5.496;2023-05-24T08:23:03;102526.88;;;13.38;100.00
69630;BME280;56857;52.212;5.496;2023-05-24T08:25:28;102528.38;;;13.50;100.00
69630;BME280;56857;52.212;5.496;2023-05-24T08:27:54;102527.25;;;13.53;100.00
69630;BME280;56857;52.212;5.496;2023-05-24T08:30:19;102530.63;;;13.73;100.00
69630;BME280;56857;52.212;5.496;2023-05-24T08:32:44;102531.75;;;13.98;100.00
69630;BME280;56857;52.212;5.496;2023-05-24T08:35:10;102535.25;;;13.98;100.00
69630;BME280;56857;52.212;5.496;2023-05-24T08:37:35;102528.44;;;13.86;100.00
69630;BME280;56857;52.212;5.496;2023-05-24T08:40:00;102531.28;;;13.84;100.00
69630;BME280;56857;52.212;5.496;2023-05-24T08:42:27;102528.06;;;13.81;100.00
69630;BME280;56857;52.212;5.496;2023-05-24T08:45:14;102531.28;;;13.84;100.00
69630;BME280;56857;52.212;5.496;2023-05-24T08:47:40;102531.16;;;14.04;100.00
69630;BME280;56857;52.212;5.496;2023-05-24T08:50:06;102525.19;;;14.28;100.00
69630;BME280;56857;52.212;5.496;2023-05-24T08:52:32;102519.13;;;14.35;100.00
69630;BME280;56857;52.212;5.496;2023-05-24T08:54:58;102523.09;;;14.31;100.00
69630;BME280;56857;52.212;5.496;2023-05-24T08:57:26;102533.19;;;14.46;100.00
69630;BME280;56857;52.212;5.496;2023-05-24T08:59:51;102526.84;;;14.56;100.00
69630;BME280;56857;52.212;5.496;2023-05-24T09:02:17;102528.94;;;14.71;100.00
69630;BME280;56857;52.212;5.496;2023-05-24T09:04:45;102532.09;;;14.92;100.00
69630;BME280;56857;52.212;5.496;2023-05-24T09:07:13;102526.75;;;15.18;100.00
69630;BME280;56857;52.212;5.496;2023-05-24T09:09:42;102531.91;;;15.46;100.00
69630;BME280;56857;52.212;5.496;2023-05-24T09:12:08;102527.44;;;15.55;100.00
69630;BME280;56857;52.212;5.496;2023-05-24T09:14:35;102529.91;;;15.48;100.00
69630;BME280;56857;52.212;5.496;2023-05-24T09:17:02;102533.34;;;15.32;100.00
69630;BME280;56857;52.212;5.496;2023-05-24T09:19:27;102537.75;;;15.15;100.00
69630;BME280;56857;52.212;5.496;2023-05-24T09:21:52;102539.94;;;14.94;100.00
69630;BME280;56857;52.212;5.496;2023-05-24T09:24:18;102546.53;;;14.81;100.00
69630;BME280;56857;52.212;5.496;2023-05-24T09:26:44;102544.03;;;14.80;100.00
69630;BME280;56857;52.212;5.496;2023-05-24T09:29:09;102549.28;;;14.72;100.00
69630;BME280;56857;52.212;5.496;2023-05-24T09:31:38;102541.75;;;14.67;100.00
69630;BME280;56857;52.212;5.496;2023-05-24T09:34:08;102536.72;;;14.82;100.00
69630;BME280;56857;52.212;5.496;2023-05-24T09:36:34;102534.34;;;14.79;100.00
69630;BME280;56857;52.212;5.496;2023-05-24T09:39:06;102540.53;;;14.62;100.00
69630;BME280;56857;52.212;5.496;2023-05-24T09:41:32;102537.13;;;14.51;100.00
69630;BME280;56857;52.212;5.496;2023-05-24T09:43:57;102536.50;;;14.57;100.00
69630;BME280;56857;52.212;5.496;2023-05-24T09:46:23;102533.50;;;14.78;100.00
69630;BME280;56857;52.212;5.496;2023-05-24T09:48:56;102537.59;;;14.91;100.00
69630;BME280;56857;52.212;5.496;2023-05-24T09:51:22;102534.78;;;14.92;100.00
69630;BME280;56857;52.212;5.496;2023-05-24T09:53:47;102529.75;;;14.89;100.00
69630;BME280;56857;52.212;5.496;2023-05-24T09:56:13;102538.91;;;14.87;100.00
69630;BME280;56857;52.212;5.496;2023-05-24T09:58:39;102533.88;;;15.10;100.00
69630;BME280;56857;52.212;5.496;2023-05-24T10:01:05;102535.66;;;15.35;100.00
69630;BME280;56857;52.212;5.496;2023-05-24T10:03:33;102539.41;;;15.50;100.00
69630;BME280;56857;52.212;5.496;2023-05-24T10:05:59;102542.78;;;15.52;100.00
69630;BME280;56857;52.212;5.496;2023-05-24T10:08:25;102539.78;;;15.56;100.00
69630;BME280;56857;52.212;5.496;2023-05-24T10:10:52;102537.72;;;15.41;100.00
69630;BME280;56857;52.212;5.496;2023-05-24T10:13:17;102542.00;;;15.26;100.00
69630;BME280;56857;52.212;5.496;2023-05-24T10:15:44;102541.09;;;15.17;100.00
69630;BME280;56857;52.212;5.496;2023-05-24T10:18:10;102537.75;;;15.15;100.00
69630;BME280;56857;52.212;5.496;2023-05-24T10:20:35;102549.16;;;15.25;100.00
69630;BME280;56857;52.212;5.496;2023-05-24T10:23:06;102541.25;;;15.50;100.00
69630;BME280;56857;52.212;5.496;2023-05-24T10:25:37;102537.38;;;15.70;100.00
69630;BME280;56857;52.212;5.496;2023-05-24T10:28:10;102533.59;;;15.89;100.00
69630;BME280;56857;52.212;5.496;2023-05-24T10:33:41;102539.09;;;15.88;100.00
69630;BME280;56857;52.212;5.496;2023-05-24T10:36:09;102546.41;;;15.78;100.00
69630;BME280;56857;52.212;5.496;2023-05-24T10:38:39;102543.28;;;15.56;100.00
69630;BME280;56857;52.212;5.496;2023-05-24T10:41:05;102541.94;;;15.52;100.00
69630;BME280;56857;52.212;5.496;2023-05-24T10:43:30;102540.81;;;15.63;100.00
69630;BME280;56857;52.212;5.496;2023-05-24T10:45:56;102539.47;;;15.59;100.00
69630;BME280;56857;52.212;5.496;2023-05-24T10:50:52;102542.41;;;15.39;100.00
69630;BME280;56857;52.212;5.496;2023-05-24T10:53:20;102534.72;;;15.44;100.00
69630;BME280;56857;52.212;5.496;2023-05-24T10:58:56;102535.34;;;15.38;100.00
69630;BME280;56857;52.212;5.496;2023-05-24T11:01:29;102537.94;;;15.56;100.00
69630;BME280;56857;52.212;5.496;2023-05-24T11:04:11;102537.06;;;15.47;100.00
69630;BME280;56857;52.212;5.496;2023-05-24T11:09:11;102537.16;;;15.29;100.00
69630;BME280;56857;52.212;5.496;2023-05-24T11:11:36;102539.22;;;15.36;100.00
69630;BME280;56857;52.212;5.496;2023-05-24T11:14:02;102542.50;;;15.29;100.00
69630;BME280;56857;52.212;5.496;2023-05-24T11:16:37;102533.50;;;15.30;100.00
69630;BME280;56857;52.212;5.496;2023-05-24T11:19:15;102538.31;;;15.27;100.00
69630;BME280;56857;52.212;5.496;2023-05-24T11:21:42;102540.50;;;15.32;100.00
69630;BME280;56857;52.212;5.496;2023-05-24T11:24:07;102537.69;;;15.33;100.00
69630;BME280;56857;52.212;5.496;2023-05-24T11:26:34;102541.38;;;15.40;100.00
69630;BME280;56857;52.212;5.496;2023-05-24T11:28:59;102541.00;;;15.61;100.00
69630;BME280;56857;52.212;5.496;2023-05-24T11:31:28;102533.91;;;15.86;100.00
69630;BME280;56857;52.212;5.496;2023-05-24T11:33:53;102538.81;;;16.07;100.00
69630;BME280;56857;52.212;5.496;2023-05-24T11:36:19;102535.03;;;16.59;100.00
69630;BME280;56857;52.212;5.496;2023-05-24T11:38:45;102539.88;;;16.80;100.00
69630;BME280;56857;52.212;5.496;2023-05-24T11:41:12;102529.88;;;17.37;100.00
69630;BME280;56857;52.212;5.496;2023-05-24T11:43:37;102524.31;;;17.87;99.29
69630;BME280;56857;52.212;5.496;2023-05-24T11:46:03;102530.88;;;17.76;100.00
69630;BME280;56857;52.212;5.496;2023-05-24T11:48:28;102534.19;;;17.47;100.00
69630;BME280;56857;52.212;5.496;2023-05-24T11:50:54;102533.09;;;17.64;100.00
69630;BME280;56857;52.212;5.496;2023-05-24T11:53:19;102539.44;;;17.79;100.00
69630;BME280;56857;52.212;5.496;2023-05-24T11:55:45;102530.63;;;17.63;99.47
69630;BME280;56857;52.212;5.496;2023-05-24T11:58:23;102534.47;;;17.60;98.78
69630;BME280;56857;52.212;5.496;2023-05-24T12:00:50;102537.63;;;17.72;100.00
69630;BME280;56857;52.212;5.496;2023-05-24T12:03:16;102535.41;;;17.75;98.72
69630;BME280;56857;52.212;5.496;2023-05-24T12:05:42;102533.09;;;17.64;97.39
69630;BME280;56857;52.212;5.496;2023-05-24T12:08:09;102527.97;;;17.46;100.00
69630;BME280;56857;52.212;5.496;2023-05-24T12:10:35;102528.03;;;17.30;100.00
69630;BME280;56857;52.212;5.496;2023-05-24T12:13:04;102537.00;;;17.06;100.00
69630;BME280;56857;52.212;5.496;2023-05-24T12:15:30;102532.28;;;17.08;100.00
69630;BME280;56857;52.212;5.496;2023-05-24T12:17:56;102523.72;;;17.29;100.00
69630;BME280;56857;52.212;5.496;2023-05-24T12:20:23;102523.50;;;17.30;100.00
69630;BME280;56857;52.212;5.496;2023-05-24T12:22:50;102520.19;;;17.28;100.00
69630;BME280;56857;52.212;5.496;2023-05-24T12:25:17;102522.19;;;17.26;100.00
69630;BME280;56857;52.212;5.496;2023-05-24T12:27:43;102526.25;;;17.22;100.00
69630;BME280;56857;52.212;5.496;2023-05-24T12:30:10;102534.44;;;17.29;100.00
69630;BME280;56857;52.212;5.496;2023-05-24T12:32:36;102524.22;;;17.24;100.00
69630;BME280;56857;52.212;5.496;2023-05-24T12:35:02;102522.59;;;16.99;100.00
69630;BME280;56857;52.212;5.496;2023-05-24T12:37:29;102529.00;;;16.81;100.00
69630;BME280;56857;52.212;5.496;2023-05-24T12:39:54;102526.13;;;16.66;100.00
69630;BME280;56857;52.212;5.496;2023-05-24T12:42:20;102525.13;;;17.00;100.00
69630;BME280;56857;52.212;5.496;2023-05-24T12:44:45;102520.69;;;17.32;100.00
69630;BME280;56857;52.212;5.496;2023-05-24T12:47:10;102524.59;;;17.52;100.00
69630;BME280;56857;52.212;5.496;2023-05-24T12:49:36;102530.47;;;17.56;99.45
69630;BME280;56857;52.212;5.496;2023-05-24T12:52:01;102529.06;;;17.37;100.00
69630;BME280;56857;52.212;5.496;2023-05-24T12:54:27;102534.09;;;17.32;100.00
69630;BME280;56857;52.212;5.496;2023-05-24T12:56:54;102529.41;;;17.34;100.00